Time;durP1;ratioP1;P1;durP2;ratioP2;P2;SDS_P1;SDS_P2;PMS_P1;PMS_P2;Temp;Humidity;BMP_temperature;BMP_pressure;BME280_temperature;BME280_humidity;BME280_pressure;Samples;Min_cycle;Max_cycle;Signal;HPM_P1;HPM_P2
2023/02/09 00:01:29;;;;;;;11.25;4.95;;;;;;;3.42;43.70;103168.47;4851614;28;124080;-70
2023/02/09 00:03:57;;;;;;;9.48;4.78;;;;;;;3.41;43.91;103166.69;4856394;29;123913;-70
2023/02/09 00:06:25;;;;;;;10.05;5.07;;;;;;;3.41;43.79;103172.81;4833452;28;114404;-70
2023/02/09 00:08:52;;;;;;;10.30;4.70;;;;;;;3.42;43.88;103173.69;4849026;29;115335;-71
2023/02/09 00:14:10;;;;;;;12.40;4.43;;;;;;;3.41;43.90;103177.16;4856270;29;123965;-71
2023/02/09 00:16:38;;;;;;;9.80;4.50;;;;;;;3.42;43.86;103178.94;4835651;28;113452;-71
2023/02/09 00:19:06;;;;;;;10.50;4.97;;;;;;;3.41;43.94;103171.91;4834957;29;113063;-71
2023/02/09 00:21:34;;;;;;;9.88;4.55;;;;;;;3.40;43.95;103171.03;4835719;29;123155;-71
2023/02/09 00:24:02;;;;;;;9.57;4.75;;;;;;;3.40;43.78;103162.31;4843874;29;123970;-72
2023/02/09 00:26:29;;;;;;;10.18;4.40;;;;;;;3.40;44.25;103164.91;4839184;29;113032;-71
2023/02/09 00:28:57;;;;;;;9.43;5.03;;;;;;;3.39;43.91;103164.03;4834233;29;112959;-71
2023/02/09 00:31:24;;;;;;;9.88;4.68;;;;;;;3.38;43.82;103166.63;4851405;28;124049;-71
2023/02/09 00:33:51;;;;;;;8.73;4.68;;;;;;;3.35;43.85;103162.19;4839457;29;123372;-72
2023/02/09 00:36:18;;;;;;;10.60;4.97;;;;;;;3.35;44.01;103163.94;4847649;29;114521;-71
2023/02/09 00:38:47;;;;;;;8.32;4.53;;;;;;;3.33;44.12;103168.25;4830495;28;113264;-71
2023/02/09 00:41:15;;;;;;;9.48;4.70;;;;;;;3.30;44.08;103175.19;4855798;28;124511;-71
2023/02/09 00:43:42;;;;;;;9.32;4.93;;;;;;;3.31;44.02;103176.06;4836829;29;123060;-71
2023/02/09 00:46:10;;;;;;;10.00;4.78;;;;;;;3.28;43.98;103171.66;4854794;29;114486;-71
2023/02/09 00:48:37;;;;;;;10.00;5.05;;;;;;;3.28;44.26;103171.66;4845163;28;113845;-71
2023/02/09 00:51:04;;;;;;;9.50;4.80;;;;;;;3.26;43.90;103170.75;4852815;28;124124;-74
2023/02/09 00:53:33;;;;;;;9.73;4.40;;;;;;;3.25;43.93;103166.34;4836148;29;97341;-70
2023/02/09 00:56:00;;;;;;;10.60;4.72;;;;;;;3.24;44.17;103169.81;4835820;29;114762;-70
2023/02/09 00:58:27;;;;;;;8.52;4.65;;;;;;;3.23;43.99;103173.28;4850879;28;115006;-70
2023/02/09 01:00:54;;;;;;;10.10;4.68;;;;;;;3.22;43.99;103176.75;4831636;29;123534;-70
2023/02/09 01:03:22;;;;;;;8.75;4.60;;;;;;;3.21;44.15;103174.09;4836232;29;122890;-70
2023/02/09 01:05:49;;;;;;;7.80;4.28;;;;;;;3.21;44.12;103180.22;4835256;29;112219;-70
2023/02/09 01:08:16;;;;;;;7.38;3.40;;;;;;;3.19;44.08;103171.44;4832714;28;113017;-70
2023/02/09 01:10:45;;;;;;;8.52;3.92;;;;;;;3.18;44.06;103169.66;4849508;29;124072;-70
2023/02/09 01:13:13;;;;;;;8.20;3.60;;;;;;;3.17;44.38;103173.13;4839480;29;123641;-70
2023/02/09 01:15:40;;;;;;;6.18;2.97;;;;;;;3.17;44.05;103173.13;4845666;28;114674;-71
2023/02/09 01:18:07;;;;;;;6.15;2.75;;;;;;;3.15;44.19;103174.84;4834181;29;114012;-72
2023/02/09 01:20:35;;;;;;;7.18;3.15;;;;;;;3.14;44.08;103175.69;4852009;28;124110;-71
2023/02/09 01:23:03;;;;;;;6.30;3.13;;;;;;;3.14;44.23;103178.28;4833004;29;124944;-70
2023/02/09 01:25:33;;;;;;;7.05;3.40;;;;;;;3.13;44.13;103171.31;4832261;29;114201;-70
2023/02/09 01:28:00;;;;;;;10.18;3.55;;;;;;;3.14;44.14;103178.28;4846264;29;114454;-70
2023/02/09 01:30:33;;;;;;;9.27;3.80;;;;;;;3.11;44.04;103178.25;4845653;28;124173;-70
2023/02/09 01:33:00;;;;;;;8.63;3.55;;;;;;;3.10;44.39;103176.47;4833583;28;122823;-70
2023/02/09 01:35:27;;;;;;;9.98;3.55;;;;;;;3.06;44.09;103179.84;4833545;29;113183;-70
2023/02/09 01:37:58;;;;;;;8.50;3.60;;;;;;;3.03;44.19;103185.00;4843186;29;113096;-72
2023/02/09 01:40:25;;;;;;;10.63;3.90;;;;;;;2.99;44.14;103180.56;4843263;29;124556;-70
2023/02/09 01:42:52;;;;;;;9.52;4.03;;;;;;;2.95;44.24;103170.84;4843303;28;124689;-69
2023/02/09 01:45:27;;;;;;;8.38;3.53;;;;;;;2.91;44.25;103170.78;4849851;29;115229;-70
2023/02/09 01:48:00;;;;;;;6.80;3.55;;;;;;;2.88;44.20;103170.72;4842286;29;115094;-70
2023/02/09 01:50:32;;;;;;;10.00;3.80;;;;;;;2.86;44.30;103167.19;4849261;29;123818;-70
2023/02/09 01:53:02;;;;;;;6.50;3.45;;;;;;;2.86;44.19;103161.94;4830460;29;125797;-70
2023/02/09 01:55:33;;;;;;;7.93;3.70;;;;;;;2.83;44.41;103161.00;4847034;29;114731;-70
2023/02/09 01:58:08;;;;;;;6.28;3.17;;;;;;;2.81;44.20;103157.44;4833271;28;113538;-69
2023/02/09 02:00:35;;;;;;;8.02;3.58;;;;;;;2.81;44.64;103158.31;4830304;29;123328;-69
2023/02/09 02:03:06;;;;;;;9.95;3.30;;;;;;;2.79;44.40;103154.78;4838385;29;121843;-69
2023/02/09 02:05:37;;;;;;;11.25;3.95;;;;;;;2.79;44.52;103154.78;4829210;29;114657;-70
2023/02/09 02:08:30;;;;;;;6.13;3.28;;;;;;;2.78;44.61;103153.00;4831429;29;113054;-70
2023/02/09 02:10:57;;;;;;;7.72;3.47;;;;;;;2.78;44.55;103153.00;4849544;29;124118;-69
2023/02/09 02:13:25;;;;;;;9.68;3.38;;;;;;;2.78;44.37;103158.25;4834462;28;122880;-70
2023/02/09 02:16:14;;;;;;;8.43;3.78;;;;;;;2.77;44.45;103150.34;4853967;29;114356;-74
2023/02/09 02:18:44;;;;;;;10.00;3.67;;;;;;;2.75;44.40;103147.72;4850262;28;113964;-69
2023/02/09 02:21:47;;;;;;;7.75;3.58;;;;;;;2.73;44.63;103147.66;4836597;28;124162;-75
2023/02/09 02:24:53;;;;;;;11.73;4.32;;;;;;;2.70;44.51;103138.84;4835127;29;122689;-69
2023/02/09 02:27:38;;;;;;;8.73;3.70;;;;;;;2.67;44.47;103133.53;4852064;29;114718;-69
2023/02/09 02:30:33;;;;;;;8.43;3.50;;;;;;;2.62;44.57;103135.16;4851148;29;114296;-69
2023/02/09 02:33:26;;;;;;;8.05;3.70;;;;;;;2.58;44.60;103141.16;4855515;28;124256;-69
2023/02/09 02:36:04;;;;;;;8.25;3.65;;;;;;;2.57;44.59;103142.03;4846841;29;124640;-69
2023/02/09 02:38:35;;;;;;;10.88;3.10;;;;;;;2.55;44.76;103144.59;4848712;29;115094;-68
2023/02/09 02:41:05;;;;;;;7.68;3.63;;;;;;;2.53;44.80;103136.69;4849722;28;114266;-69
2023/02/09 02:43:45;;;;;;;8.45;3.80;;;;;;;2.49;44.48;103129.63;4850429;28;124277;-69
2023/02/09 02:46:22;;;;;;;9.02;4.35;;;;;;;2.48;44.59;103133.06;4833704;29;123790;-69
2023/02/09 02:49:03;;;;;;;8.57;4.00;;;;;;;2.47;44.72;103130.44;4844611;28;114640;-69
2023/02/09 02:51:40;;;;;;;8.75;3.70;;;;;;;2.45;44.76;103133.00;4831221;29;114027;-70
2023/02/09 02:54:15;;;;;;;8.85;3.47;;;;;;;2.44;45.07;103131.22;4850534;29;123927;-70
2023/02/09 02:56:48;;;;;;;9.75;3.90;;;;;;;2.42;44.92;103122.47;4851688;29;124102;-69
2023/02/09 02:59:21;;;;;;;8.32;3.95;;;;;;;2.41;44.78;103115.47;4853190;28;114589;-69
2023/02/09 03:01:54;;;;;;;9.27;3.72;;;;;;;2.41;44.79;103114.56;4838434;29;112950;-68
2023/02/09 03:04:24;;;;;;;7.50;3.53;;;;;;;2.38;44.97;103114.50;4849953;28;124215;-68
2023/02/09 03:06:52;;;;;;;13.88;4.45;;;;;;;2.38;44.97;103120.63;4852183;28;124745;-69
2023/02/09 03:09:19;;;;;;;7.65;3.40;;;;;;;2.37;44.69;103113.59;4840432;28;114209;-71
2023/02/09 03:11:50;;;;;;;6.88;3.60;;;;;;;2.37;44.71;103113.59;4852900;28;114604;-68
2023/02/09 03:14:20;;;;;;;11.18;3.83;;;;;;;2.35;44.87;103110.06;4848822;29;124567;-69
2023/02/09 03:16:54;;;;;;;7.60;3.47;;;;;;;2.34;44.73;103118.78;4839374;28;124746;-68
2023/02/09 03:19:33;;;;;;;8.15;3.42;;;;;;;2.32;44.94;103115.25;4836640;29;113059;-68
2023/02/09 03:22:30;;;;;;;8.80;3.67;;;;;;;2.30;44.88;103107.34;4839261;29;113942;-68
2023/02/09 03:25:04;;;;;;;8.70;3.53;;;;;;;2.28;44.79;103111.66;4848978;28;124008;-69
2023/02/09 03:27:39;;;;;;;8.97;3.37;;;;;;;2.28;44.91;103108.13;4852380;28;124037;-69
2023/02/09 03:30:10;;;;;;;10.65;3.75;;;;;;;2.27;45.00;103111.63;4836602;29;114248;-68
2023/02/09 03:32:43;;;;;;;7.40;3.55;;;;;;;2.26;45.15;103105.50;4854795;28;115174;-69
2023/02/09 03:35:14;;;;;;;8.73;3.88;;;;;;;2.27;45.00;103106.38;4852756;29;124150;-68
2023/02/09 03:37:42;;;;;;;8.55;3.58;;;;;;;2.29;45.04;103105.56;4834663;29;123026;-69
2023/02/09 03:40:10;;;;;;;8.05;3.30;;;;;;;2.31;45.25;103103.00;4854002;29;114204;-69
2023/02/09 03:42:37;;;;;;;7.95;3.55;;;;;;;2.31;44.98;103105.63;4853338;28;114238;-69
2023/02/09 03:45:06;;;;;;;9.05;4.00;;;;;;;2.33;45.15;103101.31;4844966;28;122946;-68
2023/02/09 03:47:34;;;;;;;6.53;3.28;;;;;;;2.35;45.09;103104.84;4849368;29;124618;-68
2023/02/09 03:50:01;;;;;;;7.63;3.40;;;;;;;2.37;45.15;103108.38;4832611;29;114705;-68
2023/02/09 03:52:30;;;;;;;7.72;3.50;;;;;;;2.39;45.10;103106.69;4850829;29;114083;-68
2023/02/09 03:54:57;;;;;;;6.90;3.25;;;;;;;2.39;45.08;103109.28;4850061;28;124031;-73
2023/02/09 03:57:25;;;;;;;10.85;3.78;;;;;;;2.43;45.20;103100.72;4846167;28;123138;-69
2023/02/09 03:59:52;;;;;;;6.80;3.50;;;;;;;2.45;45.15;103096.41;4849636;28;114286;-68
2023/02/09 04:02:19;;;;;;;8.38;3.58;;;;;;;2.47;45.17;103080.75;4848536;28;114028;-68
2023/02/09 04:04:46;;;;;;;7.30;3.30;;;;;;;2.51;45.11;103091.31;4834516;29;123373;-68
2023/02/09 04:07:14;;;;;;;6.43;3.50;;;;;;;2.53;45.48;103094.84;4845464;29;124529;-68
2023/02/09 04:09:41;;;;;;;9.68;3.58;;;;;;;2.57;45.23;103079.25;4845142;28;114839;-68
2023/02/09 04:12:08;;;;;;;6.47;3.55;;;;;;;2.60;45.13;103079.28;4837208;29;113716;-68
2023/02/09 04:14:35;;;;;;;7.22;3.30;;;;;;;2.63;45.13;103082.00;4846415;28;124145;-68
2023/02/09 04:17:03;;;;;;;7.75;3.20;;;;;;;2.66;45.17;103074.22;4836613;29;123306;-69
2023/02/09 04:19:30;;;;;;;8.23;3.53;;;;;;;2.68;45.05;103067.31;4835471;29;114243;-68
2023/02/09 04:21:57;;;;;;;6.35;3.60;;;;;;;2.69;45.26;103061.19;4833125;29;114351;-68
2023/02/09 04:24:27;;;;;;;9.77;3.58;;;;;;;2.72;45.18;103059.53;4846148;29;124107;-69
2023/02/09 04:26:55;;;;;;;10.10;4.30;;;;;;;2.74;45.25;103062.19;4846869;29;124725;-68
2023/02/09 04:29:22;;;;;;;7.32;3.53;;;;;;;2.78;45.13;103069.28;4853316;28;114734;-68
2023/02/09 04:31:49;;;;;;;5.78;3.35;;;;;;;2.80;45.18;103051.88;4830287;28;114301;-69
2023/02/09 04:34:16;;;;;;;10.82;3.78;;;;;;;2.84;45.21;103053.69;4853082;28;124137;-68
2023/02/09 04:36:44;;;;;;;10.15;4.05;;;;;;;2.85;45.13;103050.25;4835404;28;122977;-68
2023/02/09 04:39:11;;;;;;;6.88;3.33;;;;;;;2.88;45.13;103045.09;4848478;28;115045;-69
2023/02/09 04:41:38;;;;;;;8.27;3.58;;;;;;;2.90;44.99;103048.63;4846655;28;114477;-68
2023/02/09 04:44:06;;;;;;;6.95;3.47;;;;;;;2.91;45.02;103054.75;4830940;28;124829;-68
2023/02/09 04:46:33;;;;;;;8.45;3.50;;;;;;;2.91;45.10;103055.63;4834066;28;123260;-68
2023/02/09 04:49:00;;;;;;;8.35;3.60;;;;;;;2.92;44.99;103057.41;4846465;28;114250;-68
2023/02/09 04:51:27;;;;;;;7.93;3.92;;;;;;;2.91;45.04;103054.75;4845478;29;114423;-68
2023/02/09 04:53:54;;;;;;;8.20;3.83;;;;;;;2.90;44.91;103053.88;4841791;29;124034;-68
2023/02/09 04:56:21;;;;;;;9.65;3.70;;;;;;;2.88;44.96;103055.56;4846233;28;124899;-69
2023/02/09 05:01:34;;;;;;;;;;;;;;;2.85;45.08;103045.00;4832239;29;113672;-68
2023/02/09 05:04:01;;;;;;;9.38;3.75;;;;;;;2.82;44.81;103044.06;4844978;29;124874;-68
2023/02/09 05:06:29;;;;;;;9.48;3.92;;;;;;;2.78;45.02;103056.19;4850154;29;124637;-68
2023/02/09 05:08:56;;;;;;;12.10;4.40;;;;;;;2.76;45.03;103050.03;4832915;29;114538;-68
2023/02/09 05:11:23;;;;;;;9.35;3.90;;;;;;;2.74;44.92;103056.97;4845544;28;114721;-69
2023/02/09 05:13:51;;;;;;;10.18;3.75;;;;;;;2.74;45.06;103072.66;4849496;28;124175;-68
2023/02/09 05:16:18;;;;;;;10.57;4.40;;;;;;;2.73;44.89;103060.41;4850472;28;123724;-69
2023/02/09 05:18:46;;;;;;;8.98;4.43;;;;;;;2.73;45.05;103060.41;4838037;28;114356;-69
2023/02/09 05:21:13;;;;;;;10.68;4.57;;;;;;;2.72;45.15;103063.91;4848451;29;114011;-69
2023/02/09 05:23:41;;;;;;;10.70;4.55;;;;;;;2.72;44.89;103058.66;4842987;28;123849;-69
2023/02/09 05:26:08;;;;;;;11.52;4.28;;;;;;;2.72;45.06;103074.38;4844592;29;124603;-68
2023/02/09 05:28:35;;;;;;;10.70;4.45;;;;;;;2.71;45.15;103067.34;4854210;28;114045;-69
2023/02/09 05:31:02;;;;;;;9.20;3.95;;;;;;;2.69;45.16;103069.06;4849545;29;114161;-69
2023/02/09 05:33:30;;;;;;;7.05;3.78;;;;;;;2.68;45.08;103067.31;4834859;29;123512;-69
2023/02/09 05:35:57;;;;;;;7.32;3.90;;;;;;;2.66;44.94;103055.91;4846793;29;123779;-69
2023/02/09 05:38:24;;;;;;;9.70;3.80;;;;;;;2.65;45.12;103061.97;4846565;29;114627;-68
2023/02/09 05:40:51;;;;;;;8.95;4.25;;;;;;;2.65;45.04;103072.44;4846380;28;114176;-69
2023/02/09 05:43:19;;;;;;;10.35;4.97;;;;;;;2.64;45.09;103070.69;4848242;29;124082;-68
2023/02/09 05:45:46;;;;;;;10.93;4.40;;;;;;;2.63;45.09;103079.38;4845229;28;123964;-69
2023/02/09 05:48:13;;;;;;;8.13;4.22;;;;;;;2.63;45.22;103084.63;4851607;28;114459;-68
2023/02/09 05:50:40;;;;;;;10.30;4.22;;;;;;;2.61;44.76;103081.94;4849895;28;115291;-68
2023/02/09 05:53:08;;;;;;;8.65;4.00;;;;;;;2.59;45.27;103085.38;4847547;28;124138;-68
2023/02/09 05:55:36;;;;;;;10.25;4.22;;;;;;;2.59;45.11;103098.47;4831649;29;123490;-69
2023/02/09 05:58:03;;;;;;;7.65;4.00;;;;;;;2.58;45.02;103097.59;4835514;29;114272;-68
2023/02/09 06:00:30;;;;;;;8.15;4.10;;;;;;;2.58;45.13;103096.69;4842147;28;113796;-69
2023/02/09 06:02:57;;;;;;;9.80;4.28;;;;;;;2.58;45.25;103096.69;4854474;28;123823;-68
2023/02/09 06:05:26;;;;;;;10.13;3.85;;;;;;;2.58;45.22;103091.44;4837469;29;122937;-69
2023/02/09 06:07:53;;;;;;;9.27;4.25;;;;;;;2.59;45.15;103088.00;4838654;28;113825;-68
2023/02/09 06:10:20;;;;;;;8.85;3.53;;;;;;;2.58;45.22;103081.00;4858043;28;113732;-69
2023/02/09 06:12:48;;;;;;;10.68;4.60;;;;;;;2.58;45.21;103076.66;4852028;28;124205;-69
2023/02/09 06:15:15;;;;;;;12.07;4.28;;;;;;;2.58;45.27;103075.75;4847591;29;123433;-73
2023/02/09 06:17:43;;;;;;;8.43;4.22;;;;;;;2.59;45.21;103072.31;4854098;28;113628;-68
2023/02/09 06:20:10;;;;;;;10.00;4.28;;;;;;;2.60;45.33;103079.28;4838802;29;112854;-68
2023/02/09 06:22:38;;;;;;;13.20;4.78;;;;;;;2.61;45.29;103075.84;4856967;29;124217;-68
2023/02/09 06:25:05;;;;;;;8.75;4.47;;;;;;;2.61;45.44;103068.00;4837206;29;123602;-68
2023/02/09 06:27:33;;;;;;;7.82;3.92;;;;;;;2.62;45.42;103067.13;4853344;29;114796;-68
2023/02/09 06:30:00;;;;;;;7.68;4.05;;;;;;;2.63;45.44;103068.91;4857845;28;113137;-69
2023/02/09 06:32:27;;;;;;;10.55;4.68;;;;;;;2.64;45.40;103060.22;4835328;29;124547;-68
2023/02/09 06:34:54;;;;;;;7.47;3.95;;;;;;;2.65;45.36;103061.97;4850450;29;124352;-68
2023/02/09 06:37:22;;;;;;;8.88;3.88;;;;;;;2.65;45.40;103073.31;4852030;29;114978;-68
2023/02/09 06:39:49;;;;;;;13.50;4.47;;;;;;;2.68;45.34;103077.75;4855342;28;114314;-69
2023/02/09 06:42:16;;;;;;;8.35;4.13;;;;;;;2.69;45.37;103071.66;4856328;28;124572;-72
2023/02/09 06:44:43;;;;;;;10.32;4.13;;;;;;;2.70;45.31;103081.31;4839876;29;122408;-68
2023/02/09 06:47:11;;;;;;;10.68;4.13;;;;;;;2.72;45.36;103090.06;4854080;29;115367;-68
2023/02/09 06:49:38;;;;;;;8.18;4.10;;;;;;;2.75;45.50;103084.00;4852442;29;115577;-68
2023/02/09 06:52:05;;;;;;;11.70;4.57;;;;;;;2.76;45.49;103091.91;4853634;28;124198;-69
2023/02/09 06:54:33;;;;;;;10.32;4.80;;;;;;;2.78;45.51;103090.19;4832460;29;123973;-69
2023/02/09 06:57:00;;;;;;;11.13;4.40;;;;;;;2.81;45.37;103095.53;4840188;28;114107;-68
2023/02/09 06:59:29;;;;;;;12.23;4.65;;;;;;;2.83;45.47;103103.41;4850760;28;113892;-69
2023/02/09 07:01:56;;;;;;;11.23;4.75;;;;;;;2.85;45.64;103113.06;4852933;29;124226;-68
2023/02/09 07:04:23;;;;;;;9.68;4.38;;;;;;;2.86;45.47;103109.59;4850904;28;123923;-68
2023/02/09 07:06:51;;;;;;;10.88;4.93;;;;;;;2.88;45.52;103113.13;4822575;29;113597;-69
2023/02/09 07:09:18;;;;;;;8.90;4.35;;;;;;;2.90;45.41;103111.44;4850069;28;114106;-69
2023/02/09 07:11:45;;;;;;;11.40;4.53;;;;;;;2.90;45.61;103121.91;4839669;29;123668;-69
2023/02/09 07:14:12;;;;;;;10.48;4.85;;;;;;;2.93;45.48;103116.72;4853703;29;124257;-69
2023/02/09 07:16:40;;;;;;;13.55;5.00;;;;;;;2.94;45.67;103122.88;4853917;28;114289;-69
2023/02/09 07:19:07;;;;;;;8.93;4.30;;;;;;;2.95;45.51;103128.97;4832610;28;113157;-69
2023/02/09 07:21:34;;;;;;;11.63;5.10;;;;;;;2.97;45.36;103137.75;4850957;28;124659;-69
2023/02/09 07:24:02;;;;;;;11.88;4.85;;;;;;;2.97;45.61;103137.75;4832699;29;122955;-67
2023/02/09 07:26:29;;;;;;;10.02;4.82;;;;;;;2.99;45.40;103141.28;4847211;29;114357;-67
2023/02/09 07:28:56;;;;;;;9.43;4.25;;;;;;;3.00;45.37;103138.72;4849169;29;114117;-67
2023/02/09 07:31:25;;;;;;;8.48;4.60;;;;;;;3.00;45.54;103133.47;4847294;29;124094;-68
2023/02/09 07:33:54;;;;;;;10.68;4.68;;;;;;;3.01;45.52;103131.72;4846510;29;124423;-67
2023/02/09 07:36:21;;;;;;;10.13;4.70;;;;;;;3.02;45.45;103125.66;4838123;29;115189;-68
2023/02/09 07:38:49;;;;;;;9.88;4.65;;;;;;;3.02;45.37;103120.44;4850698;28;115259;-67
2023/02/09 07:41:19;;;;;;;13.15;5.55;;;;;;;3.01;45.46;103123.88;4853180;29;124036;-67
2023/02/09 07:43:47;;;;;;;11.80;4.75;;;;;;;3.02;45.45;103133.50;4850724;28;123939;-67
2023/02/09 07:46:16;;;;;;;12.15;4.45;;;;;;;3.03;45.72;103133.56;4839360;29;114273;-68
2023/02/09 07:48:43;;;;;;;12.38;4.78;;;;;;;3.05;45.52;103133.56;4853808;29;113620;-67
2023/02/09 07:51:16;;;;;;;10.57;4.65;;;;;;;3.08;45.75;103141.50;4856337;28;124552;-71
2023/02/09 07:53:43;;;;;;;11.20;4.85;;;;;;;3.08;45.61;103136.28;4848778;29;123869;-67
2023/02/09 07:56:11;;;;;;;10.00;4.72;;;;;;;3.09;45.55;103138.06;4834426;29;114620;-67
2023/02/09 07:58:38;;;;;;;11.63;5.13;;;;;;;3.11;45.24;103147.69;4846413;29;113861;-67
2023/02/09 08:01:08;;;;;;;10.35;4.72;;;;;;;3.15;45.64;103148.66;4850733;28;124044;-67
2023/02/09 08:03:37;;;;;;;13.90;4.80;;;;;;;3.19;45.60;103149.63;4844253;28;124124;-67
2023/02/09 08:06:36;;;;;;;12.27;5.50;;;;;;;3.20;45.64;103152.28;4849084;29;114291;-67
2023/02/09 08:09:12;;;;;;;11.00;4.80;;;;;;;3.22;45.88;103155.81;4853451;28;114041;-68
2023/02/09 08:11:48;;;;;;;12.00;4.75;;;;;;;3.24;45.69;103151.50;4853863;29;124254;-66
2023/02/09 08:14:24;;;;;;;10.93;5.05;;;;;;;3.24;45.86;103143.63;4849124;28;123882;-67
2023/02/09 08:17:18;;;;;;;12.25;4.85;;;;;;;3.28;45.79;103145.47;4835302;29;113389;-67
2023/02/09 08:19:49;;;;;;;13.18;5.50;;;;;;;3.31;45.63;103145.53;4856376;29;114688;-67
2023/02/09 08:22:16;;;;;;;12.63;5.20;;;;;;;3.33;45.71;103142.06;4832159;28;123746;-69
2023/02/09 08:24:44;;;;;;;9.85;4.85;;;;;;;3.36;45.75;103131.66;4850053;28;124456;-69
2023/02/09 08:27:11;;;;;;;12.15;5.35;;;;;;;3.39;45.72;103142.19;4846794;29;115128;-70
2023/02/09 08:29:39;;;;;;;10.10;4.97;;;;;;;3.40;45.69;103129.13;4850170;29;114261;-69
2023/02/09 08:32:07;;;;;;;12.05;4.63;;;;;;;3.43;45.86;103133.56;4833113;29;122988;-68
2023/02/09 08:34:34;;;;;;;14.13;5.15;;;;;;;3.44;46.30;103130.09;4835676;29;122739;-69
2023/02/09 08:37:01;;;;;;;13.02;5.32;;;;;;;3.48;46.03;103148.53;4835304;28;113120;-69
2023/02/09 08:39:29;;;;;;;12.05;5.20;;;;;;;3.53;45.96;103151.25;4849927;28;113814;-69
2023/02/09 08:41:56;;;;;;;14.57;5.22;;;;;;;3.57;45.75;103142.59;4831498;29;124359;-70
2023/02/09 08:44:23;;;;;;;11.07;4.85;;;;;;;3.60;45.98;103132.19;4837917;28;123739;-69
2023/02/09 08:46:51;;;;;;;13.30;5.47;;;;;;;3.64;45.87;103128.78;4845020;28;114827;-69
2023/02/09 08:49:18;;;;;;;11.15;5.38;;;;;;;3.68;45.93;103125.34;4852061;28;113718;-69
2023/02/09 08:51:45;;;;;;;15.48;5.38;;;;;;;3.73;45.96;103127.19;4852084;29;124332;-69
2023/02/09 08:54:14;;;;;;;13.43;5.20;;;;;;;3.75;46.05;103115.88;4851707;28;124039;-69
2023/02/09 08:56:43;;;;;;;11.38;5.35;;;;;;;3.81;45.65;103126.50;4838543;29;114692;-69
2023/02/09 08:59:11;;;;;;;11.55;5.22;;;;;;;3.85;45.83;103116.94;4852945;28;113796;-69
2023/02/09 09:01:39;;;;;;;13.38;5.22;;;;;;;3.90;46.02;103107.44;4839217;28;123104;-72
2023/02/09 09:04:07;;;;;;;13.98;5.57;;;;;;;3.96;46.09;103104.94;4839417;28;123677;-69
2023/02/09 09:06:34;;;;;;;10.55;5.15;;;;;;;4.02;45.77;103110.28;4838440;29;114905;-70
2023/02/09 09:09:02;;;;;;;14.10;5.07;;;;;;;4.07;45.77;103095.53;4856479;28;113979;-69
2023/02/09 09:11:30;;;;;;;13.55;5.15;;;;;;;4.13;45.81;103101.75;4838616;29;123591;-70
2023/02/09 09:13:59;;;;;;;10.95;5.38;;;;;;;4.19;45.85;103096.59;4856001;28;123848;-70
2023/02/09 09:16:26;;;;;;;12.68;5.43;;;;;;;4.24;45.89;103102.84;4852620;28;115751;-69
2023/02/09 09:18:53;;;;;;;13.80;4.75;;;;;;;4.30;45.79;103118.66;4854826;29;114797;-70
2023/02/09 09:21:20;;;;;;;12.43;4.93;;;;;;;4.36;45.79;103116.16;4849750;28;123982;-70
2023/02/09 09:23:48;;;;;;;11.40;5.43;;;;;;;4.41;46.09;103117.13;4850783;29;123860;-70
2023/02/09 09:26:16;;;;;;;12.65;5.38;;;;;;;4.47;46.01;103119.84;4848312;28;114585;-69
2023/02/09 09:28:44;;;;;;;14.07;5.60;;;;;;;4.55;45.73;103126.97;4849358;29;114045;-69
2023/02/09 09:31:13;;;;;;;13.73;4.80;;;;;;;4.63;45.84;103122.72;4844014;29;124063;-69
2023/02/09 09:33:41;;;;;;;10.63;5.07;;;;;;;4.71;45.98;103118.50;4841882;28;123232;-69
2023/02/09 09:36:10;;;;;;;12.10;5.38;;;;;;;4.80;45.79;103121.25;4847002;28;114985;-69
2023/02/09 09:38:38;;;;;;;12.05;5.15;;;;;;;4.90;45.76;103126.63;4838693;28;114112;-69
2023/02/09 09:41:20;;;;;;;10.68;5.28;;;;;;;5.00;45.80;103125.94;4835997;29;124169;-69
2023/02/09 09:43:48;;;;;;;14.27;5.15;;;;;;;5.08;45.96;103126.91;4853257;29;125098;-70
2023/02/09 09:46:22;;;;;;;10.60;4.93;;;;;;;5.18;45.59;103125.28;4852536;29;114350;-70
2023/02/09 09:48:56;;;;;;;14.27;5.38;;;;;;;5.29;45.67;103133.34;4837119;29;114122;-70
2023/02/09 09:51:44;;;;;;;9.32;5.07;;;;;;;5.37;45.77;103121.19;4842535;29;123800;-70
2023/02/09 09:54:17;;;;;;;10.65;5.18;;;;;;;5.43;45.58;103110.78;4852149;28;124469;-71
2023/02/09 09:56:45;;;;;;;10.60;5.03;;;;;;;5.48;45.74;103124.81;4855388;28;114382;-70
2023/02/09 09:59:25;;;;;;;9.60;5.60;;;;;;;5.53;45.43;103117.91;4855611;29;113688;-70
2023/02/09 10:01:54;;;;;;;11.55;5.05;;;;;;;5.60;45.75;103117.13;4844148;28;124212;-72
2023/02/09 10:04:22;;;;;;;8.90;4.57;;;;;;;5.67;45.37;103120.72;4836889;28;124282;-71
2023/02/09 10:07:00;;;;;;;13.85;5.20;;;;;;;5.73;45.57;103131.31;4852876;29;115077;-71
2023/02/09 10:09:42;;;;;;;13.05;5.50;;;;;;;5.81;45.52;103144.53;4854123;28;115370;-72
2023/02/09 10:12:36;;;;;;;13.10;5.43;;;;;;;5.88;45.29;103141.13;4838057;29;123543;-72
2023/02/09 10:15:27;;;;;;;10.98;5.40;;;;;;;5.93;45.05;103144.66;4849178;28;123963;-72
2023/02/09 10:17:56;;;;;;;9.75;4.53;;;;;;;5.98;45.24;103163.19;4862467;28;114530;-72
2023/02/09 10:20:44;;;;;;;14.25;5.88;;;;;;;6.03;44.96;103167.63;4840048;28;112194;-72
2023/02/09 10:23:25;;;;;;;9.23;5.55;;;;;;;6.08;45.16;103153.63;4835295;28;124072;-72
2023/02/09 10:25:58;;;;;;;16.20;6.10;;;;;;;6.10;44.93;103158.03;4820729;29;122945;-72
2023/02/09 10:28:31;;;;;;;12.93;5.18;;;;;;;6.13;44.97;103157.22;4852120;28;114230;-72
2023/02/09 10:31:01;;;;;;;10.93;5.22;;;;;;;6.17;45.01;103164.25;4846715;29;113970;-73
2023/02/09 10:33:37;;;;;;;10.23;5.40;;;;;;;6.20;45.38;103159.03;4830155;29;123046;-73
2023/02/09 10:36:08;;;;;;;12.57;5.93;;;;;;;6.26;45.38;103161.72;4853410;28;124133;-74
2023/02/09 10:38:39;;;;;;;8.43;4.95;;;;;;;6.29;44.94;103159.16;4853462;29;114239;-73
2023/02/09 10:41:09;;;;;;;12.88;5.55;;;;;;;6.33;44.79;103150.41;4818551;29;113084;-73
2023/02/09 10:43:37;;;;;;;13.43;6.00;;;;;;;6.38;45.25;103153.06;4839681;28;123675;-73
2023/02/09 10:46:18;;;;;;;13.15;5.28;;;;;;;6.43;45.13;103152.25;4856268;28;124531;-73
2023/02/09 10:48:46;;;;;;;10.95;5.50;;;;;;;6.52;44.99;103145.31;4859795;28;114581;-73
2023/02/09 10:51:32;;;;;;;10.45;5.20;;;;;;;6.54;45.12;103138.31;4859558;28;114064;-73
2023/02/09 10:54:01;;;;;;;11.20;5.80;;;;;;;6.60;45.11;103148.91;4841656;28;124687;-72
2023/02/09 10:56:45;;;;;;;11.10;5.35;;;;;;;6.65;45.17;103136.66;4838787;29;123972;-73
2023/02/09 10:59:22;;;;;;;9.23;5.50;;;;;;;6.71;44.81;103147.22;4840802;28;114682;-73
2023/02/09 11:01:59;;;;;;;10.27;5.07;;;;;;;6.75;44.93;103143.75;4842430;28;114373;-74
2023/02/09 11:04:37;;;;;;;10.35;5.70;;;;;;;6.81;44.78;103138.53;4843939;28;123661;-74
2023/02/09 11:07:13;;;;;;;13.70;5.50;;;;;;;6.87;44.74;103147.34;4833323;29;123438;-73
2023/02/09 11:09:46;;;;;;;11.00;5.25;;;;;;;6.91;44.82;103147.41;4836608;29;114273;-74
2023/02/09 11:12:13;;;;;;;14.23;5.75;;;;;;;6.98;44.70;103137.78;4832039;29;114379;-75
2023/02/09 11:14:42;;;;;;;8.98;5.38;;;;;;;7.05;44.76;103147.50;4851687;28;124696;-73
2023/02/09 11:17:25;;;;;;;10.18;5.00;;;;;;;7.14;44.95;103137.00;4855843;28;124016;-73
2023/02/09 11:20:07;;;;;;;13.05;5.88;;;;;;;7.24;44.88;103131.81;4845774;29;114567;-73
2023/02/09 11:22:53;;;;;;;9.88;5.43;;;;;;;7.33;44.58;103145.03;4849985;28;114905;-73
2023/02/09 11:25:47;;;;;;;10.38;5.90;;;;;;;7.41;44.61;103151.22;4855706;29;124527;-73
2023/02/09 11:28:53;;;;;;;15.32;6.18;;;;;;;7.50;44.92;103150.41;4839105;28;124462;-73
2023/02/09 11:31:45;;;;;;;11.53;6.13;;;;;;;7.58;44.80;103154.81;4818588;29;114070;-73
2023/02/09 11:35:00;;;;;;;12.35;6.28;;;;;;;7.67;44.88;103153.13;4816794;29;114144;-73
2023/02/09 11:37:57;;;;;;;8.98;5.47;;;;;;;7.75;44.78;103151.38;4797309;29;124266;-72
2023/02/09 11:40:40;;;;;;;13.23;6.03;;;;;;;7.82;44.41;103147.91;4848148;28;124620;-73
2023/02/09 11:43:23;;;;;;;13.23;6.20;;;;;;;7.90;44.58;103156.72;4843080;28;113969;-73
2023/02/09 11:45:59;;;;;;;12.43;5.97;;;;;;;8.01;44.83;103158.50;4839827;28;114089;-73